27VA weather

Prince William Hospital Heliport
Manassas, Virginia, United States

Public forecast

Using degrees Fahrenheit for public forecast. Weather courtesy of forecast.io.

Closest aviation weather report (METAR) to Prince William Hospital Heliport

Closest report is Manassas Regional Airport/Harry P. Davis Field, 3.0 nm (5.5 km) SSW. Retrieved 2020/06/04 11:36 UTC (9 minutes ago):

KHEF 041136Z AUTO 00000KT 8SM FEW002 22/18 A2989 RMK AO2

Closest aviation forecast (TAF) to Prince William Hospital Heliport

Closest forecast is Washington Dulles International Airport, 10.8 nm (20.1 km) N. Retrieved 2020/06/04 06:22 UTC (5 hours ago):

TAF KIAD 040520Z 0406/0512 27008KT P6SM BKN130 FM040900 VRB03KT P6SM BKN130 FM041600 18008KT P6SM SCT050 BKN130 FM041900 18008G16KT P6SM VCTS SCT050CB BKN130 FM042300 19008KT P6SM SCT050 BKN130